In Rescue
 
Open Full Screen Window  High Contrast Mode
Wind Gusting 00 knots
06
May 27, 2024 2:47 PM CDT
Weather Information
Wind Direction
  050 °
Wind Speed
  06 kt (7 mph)
Wind Gust
  00 kt (0 mph)
Altimeter
29.89 in
Visibility
10 SM
Temperature
14° C
57° F
Dewpoint
07° C
45° F
Humidity
63%
Sky Condition
Overcast @ 7,000 ft
VFR

METAR KFSE 271947Z AUTO 05006KT 10SM OVC070 14/07 A2989 RMK AO2

FAA Disclaimer: The data displayed is for advisory purposes only and is not to be used for flight planning or operations.